sensor_id;sensor_type;location;lat;lon;timestamp;P1;durP1;ratioP1;P2;durP2;ratioP2
14883;SDS011;7534;50.762;7.000;2023-12-28T00:01:28;4.07;;;1.87;;
14883;SDS011;7534;50.762;7.000;2023-12-28T00:03:54;2.00;;;1.80;;
14883;SDS011;7534;50.762;7.000;2023-12-28T00:06:20;1.93;;;1.83;;
14883;SDS011;7534;50.762;7.000;2023-12-28T00:08:46;2.33;;;1.93;;
14883;SDS011;7534;50.762;7.000;2023-12-28T00:11:13;2.00;;;1.80;;
14883;SDS011;7534;50.762;7.000;2023-12-28T00:13:39;2.80;;;1.70;;
14883;SDS011;7534;50.762;7.000;2023-12-28T00:16:05;2.67;;;1.63;;
14883;SDS011;7534;50.762;7.000;2023-12-28T00:18:31;1.90;;;1.60;;
14883;SDS011;7534;50.762;7.000;2023-12-28T00:20:57;1.83;;;1.60;;
14883;SDS011;7534;50.762;7.000;2023-12-28T00:23:22;1.97;;;1.80;;
14883;SDS011;7534;50.762;7.000;2023-12-28T00:25:48;1.80;;;1.70;;
14883;SDS011;7534;50.762;7.000;2023-12-28T00:28:14;1.77;;;1.67;;
14883;SDS011;7534;50.762;7.000;2023-12-28T00:30:39;2.47;;;1.80;;
14883;SDS011;7534;50.762;7.000;2023-12-28T00:33:05;1.80;;;1.70;;
14883;SDS011;7534;50.762;7.000;2023-12-28T00:35:31;1.80;;;1.70;;
14883;SDS011;7534;50.762;7.000;2023-12-28T00:37:57;3.27;;;2.03;;
14883;SDS011;7534;50.762;7.000;2023-12-28T00:40:22;1.63;;;1.53;;
14883;SDS011;7534;50.762;7.000;2023-12-28T00:42:48;2.20;;;2.00;;
14883;SDS011;7534;50.762;7.000;2023-12-28T00:45:14;1.90;;;1.70;;
14883;SDS011;7534;50.762;7.000;2023-12-28T00:47:40;2.00;;;1.70;;
14883;SDS011;7534;50.762;7.000;2023-12-28T00:50:08;1.97;;;1.70;;
14883;SDS011;7534;50.762;7.000;2023-12-28T00:52:37;2.33;;;2.00;;
14883;SDS011;7534;50.762;7.000;2023-12-28T00:55:03;2.30;;;1.90;;
14883;SDS011;7534;50.762;7.000;2023-12-28T00:57:30;1.93;;;1.73;;
14883;SDS011;7534;50.762;7.000;2023-12-28T00:59:55;1.70;;;1.60;;
14883;SDS011;7534;50.762;7.000;2023-12-28T01:02:21;1.83;;;1.50;;
14883;SDS011;7534;50.762;7.000;2023-12-28T01:04:47;1.60;;;1.40;;
14883;SDS011;7534;50.762;7.000;2023-12-28T01:07:13;1.70;;;1.60;;
14883;SDS011;7534;50.762;7.000;2023-12-28T01:09:38;1.80;;;1.60;;
14883;SDS011;7534;50.762;7.000;2023-12-28T01:12:04;1.60;;;1.50;;
14883;SDS011;7534;50.762;7.000;2023-12-28T01:14:30;1.50;;;1.40;;
14883;SDS011;7534;50.762;7.000;2023-12-28T01:16:56;1.50;;;1.40;;
14883;SDS011;7534;50.762;7.000;2023-12-28T01:19:21;1.50;;;1.40;;
14883;SDS011;7534;50.762;7.000;2023-12-28T01:21:48;1.57;;;1.40;;
14883;SDS011;7534;50.762;7.000;2023-12-28T01:24:14;1.70;;;1.60;;
14883;SDS011;7534;50.762;7.000;2023-12-28T01:26:40;1.17;;;1.10;;
14883;SDS011;7534;50.762;7.000;2023-12-28T01:29:06;1.37;;;1.20;;
14883;SDS011;7534;50.762;7.000;2023-12-28T01:31:32;1.30;;;1.20;;
14883;SDS011;7534;50.762;7.000;2023-12-28T01:33:58;1.27;;;1.17;;
14883;SDS011;7534;50.762;7.000;2023-12-28T01:36:23;1.33;;;1.23;;
14883;SDS011;7534;50.762;7.000;2023-12-28T01:38:49;1.40;;;1.27;;
14883;SDS011;7534;50.762;7.000;2023-12-28T01:41:16;1.37;;;1.27;;
14883;SDS011;7534;50.762;7.000;2023-12-28T01:43:42;2.13;;;1.20;;
14883;SDS011;7534;50.762;7.000;2023-12-28T01:46:09;1.70;;;1.30;;
14883;SDS011;7534;50.762;7.000;2023-12-28T01:48:44;1.10;;;1.03;;
14883;SDS011;7534;50.762;7.000;2023-12-28T01:51:12;1.50;;;1.40;;
14883;SDS011;7534;50.762;7.000;2023-12-28T01:53:39;1.53;;;1.43;;
14883;SDS011;7534;50.762;7.000;2023-12-28T01:56:05;1.00;;;1.00;;
14883;SDS011;7534;50.762;7.000;2023-12-28T01:58:35;1.40;;;1.30;;
14883;SDS011;7534;50.762;7.000;2023-12-28T02:01:01;1.37;;;1.27;;
14883;SDS011;7534;50.762;7.000;2023-12-28T02:03:27;1.93;;;1.30;;
14883;SDS011;7534;50.762;7.000;2023-12-28T02:05:54;1.20;;;1.10;;
14883;SDS011;7534;50.762;7.000;2023-12-28T02:08:20;1.20;;;1.10;;
14883;SDS011;7534;50.762;7.000;2023-12-28T02:10:46;1.10;;;1.00;;
14883;SDS011;7534;50.762;7.000;2023-12-28T02:13:12;1.40;;;1.30;;
14883;SDS011;7534;50.762;7.000;2023-12-28T02:15:38;1.00;;;1.00;;
14883;SDS011;7534;50.762;7.000;2023-12-28T02:18:16;1.20;;;1.10;;
14883;SDS011;7534;50.762;7.000;2023-12-28T02:20:47;1.10;;;1.10;;
14883;SDS011;7534;50.762;7.000;2023-12-28T02:23:15;1.20;;;1.10;;
14883;SDS011;7534;50.762;7.000;2023-12-28T02:25:41;1.23;;;1.13;;
14883;SDS011;7534;50.762;7.000;2023-12-28T02:28:07;1.20;;;1.10;;
14883;SDS011;7534;50.762;7.000;2023-12-28T02:30:33;1.40;;;1.30;;
14883;SDS011;7534;50.762;7.000;2023-12-28T02:35:54;2.83;;;1.50;;
14883;SDS011;7534;50.762;7.000;2023-12-28T02:38:23;1.40;;;1.30;;
14883;SDS011;7534;50.762;7.000;2023-12-28T02:40:50;1.50;;;1.40;;
14883;SDS011;7534;50.762;7.000;2023-12-28T02:43:17;1.40;;;1.30;;
14883;SDS011;7534;50.762;7.000;2023-12-28T02:45:43;1.33;;;1.23;;
14883;SDS011;7534;50.762;7.000;2023-12-28T02:48:08;1.50;;;1.40;;
14883;SDS011;7534;50.762;7.000;2023-12-28T02:50:34;1.30;;;1.20;;
14883;SDS011;7534;50.762;7.000;2023-12-28T02:53:01;1.40;;;1.30;;
14883;SDS011;7534;50.762;7.000;2023-12-28T02:55:27;1.40;;;1.30;;
14883;SDS011;7534;50.762;7.000;2023-12-28T02:57:53;1.67;;;1.40;;
14883;SDS011;7534;50.762;7.000;2023-12-28T03:00:21;2.20;;;1.50;;
14883;SDS011;7534;50.762;7.000;2023-12-28T03:02:47;2.27;;;1.40;;
14883;SDS011;7534;50.762;7.000;2023-12-28T03:05:13;1.50;;;1.20;;
14883;SDS011;7534;50.762;7.000;2023-12-28T03:07:38;1.47;;;1.37;;
14883;SDS011;7534;50.762;7.000;2023-12-28T03:10:05;1.47;;;1.37;;
14883;SDS011;7534;50.762;7.000;2023-12-28T03:12:32;1.90;;;1.70;;
14883;SDS011;7534;50.762;7.000;2023-12-28T03:14:57;1.60;;;1.50;;
14883;SDS011;7534;50.762;7.000;2023-12-28T03:17:23;1.50;;;1.40;;
14883;SDS011;7534;50.762;7.000;2023-12-28T03:19:49;1.60;;;1.50;;
14883;SDS011;7534;50.762;7.000;2023-12-28T03:22:15;2.17;;;1.77;;
14883;SDS011;7534;50.762;7.000;2023-12-28T03:24:42;2.47;;;1.60;;
14883;SDS011;7534;50.762;7.000;2023-12-28T03:27:08;1.70;;;1.60;;
14883;SDS011;7534;50.762;7.000;2023-12-28T03:29:34;2.63;;;1.90;;
14883;SDS011;7534;50.762;7.000;2023-12-28T03:31:59;1.60;;;1.50;;
14883;SDS011;7534;50.762;7.000;2023-12-28T03:34:26;2.30;;;1.93;;
14883;SDS011;7534;50.762;7.000;2023-12-28T03:36:54;1.80;;;1.67;;
14883;SDS011;7534;50.762;7.000;2023-12-28T03:39:21;1.93;;;1.77;;
14883;SDS011;7534;50.762;7.000;2023-12-28T03:41:47;2.23;;;1.80;;
14883;SDS011;7534;50.762;7.000;2023-12-28T03:44:13;2.67;;;2.17;;
14883;SDS011;7534;50.762;7.000;2023-12-28T03:46:38;1.83;;;1.73;;
14883;SDS011;7534;50.762;7.000;2023-12-28T03:49:04;1.83;;;1.73;;
14883;SDS011;7534;50.762;7.000;2023-12-28T03:51:30;2.00;;;1.90;;
14883;SDS011;7534;50.762;7.000;2023-12-28T03:53:56;2.10;;;1.80;;
14883;SDS011;7534;50.762;7.000;2023-12-28T03:56:22;2.10;;;1.87;;
14883;SDS011;7534;50.762;7.000;2023-12-28T03:58:52;3.20;;;1.73;;
14883;SDS011;7534;50.762;7.000;2023-12-28T04:01:19;2.83;;;1.90;;
14883;SDS011;7534;50.762;7.000;2023-12-28T04:03:47;2.23;;;1.77;;
14883;SDS011;7534;50.762;7.000;2023-12-28T04:06:13;2.17;;;1.97;;
14883;SDS011;7534;50.762;7.000;2023-12-28T04:08:40;2.00;;;1.80;;
14883;SDS011;7534;50.762;7.000;2023-12-28T04:11:06;2.27;;;1.90;;
14883;SDS011;7534;50.762;7.000;2023-12-28T04:13:33;2.37;;;1.90;;
14883;SDS011;7534;50.762;7.000;2023-12-28T04:15:59;2.80;;;2.13;;
14883;SDS011;7534;50.762;7.000;2023-12-28T04:18:24;2.80;;;2.10;;
14883;SDS011;7534;50.762;7.000;2023-12-28T04:20:50;3.60;;;2.13;;
14883;SDS011;7534;50.762;7.000;2023-12-28T04:23:16;2.00;;;1.80;;
14883;SDS011;7534;50.762;7.000;2023-12-28T04:25:41;3.20;;;2.20;;
14883;SDS011;7534;50.762;7.000;2023-12-28T04:28:07;2.10;;;1.90;;
14883;SDS011;7534;50.762;7.000;2023-12-28T04:30:33;2.63;;;1.80;;
14883;SDS011;7534;50.762;7.000;2023-12-28T04:33:02;2.77;;;2.20;;
14883;SDS011;7534;50.762;7.000;2023-12-28T04:35:28;2.73;;;2.10;;
14883;SDS011;7534;50.762;7.000;2023-12-28T04:37:54;2.70;;;2.10;;
14883;SDS011;7534;50.762;7.000;2023-12-28T04:40:20;2.83;;;2.27;;
14883;SDS011;7534;50.762;7.000;2023-12-28T04:42:45;2.53;;;2.10;;
14883;SDS011;7534;50.762;7.000;2023-12-28T04:45:11;2.67;;;1.93;;
14883;SDS011;7534;50.762;7.000;2023-12-28T04:47:37;2.70;;;2.07;;
14883;SDS011;7534;50.762;7.000;2023-12-28T04:50:03;2.40;;;1.90;;
14883;SDS011;7534;50.762;7.000;2023-12-28T04:52:30;4.00;;;2.30;;
14883;SDS011;7534;50.762;7.000;2023-12-28T04:54:56;2.20;;;1.90;;
14883;SDS011;7534;50.762;7.000;2023-12-28T04:57:22;3.30;;;2.27;;
14883;SDS011;7534;50.762;7.000;2023-12-28T04:59:50;2.40;;;2.13;;
14883;SDS011;7534;50.762;7.000;2023-12-28T05:02:16;2.27;;;2.07;;
14883;SDS011;7534;50.762;7.000;2023-12-28T05:04:42;3.57;;;2.10;;
14883;SDS011;7534;50.762;7.000;2023-12-28T05:07:07;2.63;;;1.90;;
14883;SDS011;7534;50.762;7.000;2023-12-28T05:09:33;2.70;;;2.13;;
14883;SDS011;7534;50.762;7.000;2023-12-28T05:11:59;3.80;;;2.07;;
14883;SDS011;7534;50.762;7.000;2023-12-28T05:14:28;2.33;;;2.00;;
14883;SDS011;7534;50.762;7.000;2023-12-28T05:16:53;2.70;;;1.77;;
14883;SDS011;7534;50.762;7.000;2023-12-28T05:19:19;2.10;;;1.90;;
14883;SDS011;7534;50.762;7.000;2023-12-28T05:21:45;2.80;;;2.10;;
14883;SDS011;7534;50.762;7.000;2023-12-28T05:24:12;2.80;;;2.20;;
14883;SDS011;7534;50.762;7.000;2023-12-28T05:26:38;2.13;;;1.80;;
14883;SDS011;7534;50.762;7.000;2023-12-28T05:29:03;2.80;;;1.93;;
14883;SDS011;7534;50.762;7.000;2023-12-28T05:31:29;3.13;;;2.23;;
14883;SDS011;7534;50.762;7.000;2023-12-28T05:33:55;3.37;;;2.20;;
14883;SDS011;7534;50.762;7.000;2023-12-28T05:36:20;2.20;;;2.00;;
14883;SDS011;7534;50.762;7.000;2023-12-28T05:38:46;2.00;;;1.80;;
14883;SDS011;7534;50.762;7.000;2023-12-28T05:41:12;2.50;;;2.00;;
14883;SDS011;7534;50.762;7.000;2023-12-28T05:43:38;2.97;;;2.00;;
14883;SDS011;7534;50.762;7.000;2023-12-28T05:46:04;2.60;;;2.00;;
14883;SDS011;7534;50.762;7.000;2023-12-28T05:48:30;3.47;;;2.00;;
14883;SDS011;7534;50.762;7.000;2023-12-28T05:50:59;4.73;;;2.13;;
14883;SDS011;7534;50.762;7.000;2023-12-28T05:53:25;2.00;;;1.80;;
14883;SDS011;7534;50.762;7.000;2023-12-28T05:55:52;3.20;;;1.70;;
14883;SDS011;7534;50.762;7.000;2023-12-28T05:58:18;3.37;;;2.00;;
14883;SDS011;7534;50.762;7.000;2023-12-28T06:00:44;2.23;;;1.97;;
14883;SDS011;7534;50.762;7.000;2023-12-28T06:03:13;3.10;;;2.10;;
14883;SDS011;7534;50.762;7.000;2023-12-28T06:05:42;2.40;;;1.87;;
14883;SDS011;7534;50.762;7.000;2023-12-28T06:08:08;2.60;;;1.90;;
14883;SDS011;7534;50.762;7.000;2023-12-28T06:10:33;3.80;;;2.10;;
14883;SDS011;7534;50.762;7.000;2023-12-28T06:12:59;2.23;;;1.70;;
14883;SDS011;7534;50.762;7.000;2023-12-28T06:15:25;1.90;;;1.80;;
14883;SDS011;7534;50.762;7.000;2023-12-28T06:17:50;3.23;;;1.77;;
14883;SDS011;7534;50.762;7.000;2023-12-28T06:20:17;2.53;;;1.90;;
14883;SDS011;7534;50.762;7.000;2023-12-28T06:22:42;2.17;;;1.90;;
14883;SDS011;7534;50.762;7.000;2023-12-28T06:25:10;3.80;;;2.00;;
14883;SDS011;7534;50.762;7.000;2023-12-28T06:27:36;2.63;;;1.90;;
14883;SDS011;7534;50.762;7.000;2023-12-28T06:30:02;2.27;;;2.07;;
14883;SDS011;7534;50.762;7.000;2023-12-28T06:32:28;2.77;;;2.17;;
14883;SDS011;7534;50.762;7.000;2023-12-28T06:34:54;4.33;;;2.00;;
14883;SDS011;7534;50.762;7.000;2023-12-28T06:37:19;2.43;;;2.00;;
14883;SDS011;7534;50.762;7.000;2023-12-28T06:39:45;3.50;;;2.00;;
14883;SDS011;7534;50.762;7.000;2023-12-28T06:42:11;2.13;;;1.93;;
14883;SDS011;7534;50.762;7.000;2023-12-28T06:44:36;2.10;;;1.80;;
14883;SDS011;7534;50.762;7.000;2023-12-28T06:47:02;3.70;;;2.27;;
14883;SDS011;7534;50.762;7.000;2023-12-28T06:49:28;3.70;;;2.10;;
14883;SDS011;7534;50.762;7.000;2023-12-28T06:51:53;4.00;;;2.27;;
14883;SDS011;7534;50.762;7.000;2023-12-28T06:54:19;2.63;;;2.43;;
14883;SDS011;7534;50.762;7.000;2023-12-28T06:56:46;2.07;;;1.80;;
14883;SDS011;7534;50.762;7.000;2023-12-28T06:59:11;3.50;;;2.57;;
14883;SDS011;7534;50.762;7.000;2023-12-28T07:01:40;2.67;;;2.10;;
14883;SDS011;7534;50.762;7.000;2023-12-28T07:04:06;2.40;;;2.20;;
14883;SDS011;7534;50.762;7.000;2023-12-28T07:06:32;2.57;;;2.00;;
14883;SDS011;7534;50.762;7.000;2023-12-28T07:08:58;2.27;;;1.90;;
14883;SDS011;7534;50.762;7.000;2023-12-28T07:11:24;2.43;;;2.23;;
14883;SDS011;7534;50.762;7.000;2023-12-28T07:13:51;5.43;;;2.37;;
14883;SDS011;7534;50.762;7.000;2023-12-28T07:16:17;2.53;;;2.00;;
14883;SDS011;7534;50.762;7.000;2023-12-28T07:18:43;2.70;;;2.10;;
14883;SDS011;7534;50.762;7.000;2023-12-28T07:21:08;2.47;;;2.00;;
14883;SDS011;7534;50.762;7.000;2023-12-28T07:23:34;3.73;;;2.03;;
14883;SDS011;7534;50.762;7.000;2023-12-28T07:26:01;3.43;;;1.90;;
14883;SDS011;7534;50.762;7.000;2023-12-28T07:28:27;2.00;;;1.70;;
14883;SDS011;7534;50.762;7.000;2023-12-28T07:30:53;3.77;;;2.23;;
14883;SDS011;7534;50.762;7.000;2023-12-28T07:33:19;3.80;;;1.87;;
14883;SDS011;7534;50.762;7.000;2023-12-28T07:35:45;4.20;;;2.00;;
14883;SDS011;7534;50.762;7.000;2023-12-28T07:38:11;2.63;;;2.03;;
14883;SDS011;7534;50.762;7.000;2023-12-28T07:40:36;2.07;;;1.80;;
14883;SDS011;7534;50.762;7.000;2023-12-28T07:43:02;2.73;;;2.07;;
14883;SDS011;7534;50.762;7.000;2023-12-28T07:45:28;4.87;;;2.27;;
14883;SDS011;7534;50.762;7.000;2023-12-28T07:47:54;3.60;;;1.90;;
14883;SDS011;7534;50.762;7.000;2023-12-28T07:50:20;4.13;;;2.07;;
14883;SDS011;7534;50.762;7.000;2023-12-28T07:52:46;2.63;;;2.00;;
14883;SDS011;7534;50.762;7.000;2023-12-28T07:55:12;4.07;;;2.30;;
14883;SDS011;7534;50.762;7.000;2023-12-28T07:57:39;3.73;;;2.03;;
14883;SDS011;7534;50.762;7.000;2023-12-28T08:00:05;2.73;;;1.90;;
14883;SDS011;7534;50.762;7.000;2023-12-28T08:02:31;4.03;;;2.00;;
14883;SDS011;7534;50.762;7.000;2023-12-28T08:04:58;3.63;;;2.10;;
14883;SDS011;7534;50.762;7.000;2023-12-28T08:07:23;4.33;;;2.43;;
14883;SDS011;7534;50.762;7.000;2023-12-28T08:09:49;4.47;;;2.10;;
14883;SDS011;7534;50.762;7.000;2023-12-28T08:12:15;3.80;;;1.90;;
14883;SDS011;7534;50.762;7.000;2023-12-28T08:14:42;4.10;;;2.10;;
14883;SDS011;7534;50.762;7.000;2023-12-28T08:17:08;3.70;;;2.53;;
14883;SDS011;7534;50.762;7.000;2023-12-28T08:19:34;4.07;;;2.80;;
14883;SDS011;7534;50.762;7.000;2023-12-28T08:22:00;3.47;;;2.40;;
14883;SDS011;7534;50.762;7.000;2023-12-28T08:24:26;4.00;;;2.10;;
14883;SDS011;7534;50.762;7.000;2023-12-28T08:26:51;3.97;;;1.90;;
14883;SDS011;7534;50.762;7.000;2023-12-28T08:29:18;2.40;;;2.00;;
14883;SDS011;7534;50.762;7.000;2023-12-28T08:31:43;3.07;;;2.10;;
14883;SDS011;7534;50.762;7.000;2023-12-28T08:34:09;3.50;;;2.20;;
14883;SDS011;7534;50.762;7.000;2023-12-28T08:36:35;5.50;;;2.87;;
14883;SDS011;7534;50.762;7.000;2023-12-28T08:39:00;4.10;;;2.20;;
14883;SDS011;7534;50.762;7.000;2023-12-28T08:41:26;5.07;;;2.90;;
14883;SDS011;7534;50.762;7.000;2023-12-28T08:43:53;5.27;;;2.70;;
14883;SDS011;7534;50.762;7.000;2023-12-28T08:46:21;3.23;;;1.90;;
14883;SDS011;7534;50.762;7.000;2023-12-28T08:48:49;5.47;;;3.50;;
14883;SDS011;7534;50.762;7.000;2023-12-28T08:51:15;4.17;;;2.73;;
14883;SDS011;7534;50.762;7.000;2023-12-28T08:53:41;3.47;;;2.17;;
14883;SDS011;7534;50.762;7.000;2023-12-28T08:56:17;3.97;;;1.93;;
14883;SDS011;7534;50.762;7.000;2023-12-28T08:58:46;3.63;;;1.90;;
14883;SDS011;7534;50.762;7.000;2023-12-28T09:01:19;3.13;;;1.77;;
14883;SDS011;7534;50.762;7.000;2023-12-28T09:03:48;3.83;;;2.23;;
14883;SDS011;7534;50.762;7.000;2023-12-28T09:06:16;4.13;;;2.00;;
14883;SDS011;7534;50.762;7.000;2023-12-28T09:08:42;2.33;;;1.63;;
14883;SDS011;7534;50.762;7.000;2023-12-28T09:11:10;2.87;;;1.70;;
14883;SDS011;7534;50.762;7.000;2023-12-28T09:13:39;2.20;;;1.83;;
14883;SDS011;7534;50.762;7.000;2023-12-28T09:16:07;3.60;;;2.13;;
14883;SDS011;7534;50.762;7.000;2023-12-28T09:18:35;4.67;;;2.10;;
14883;SDS011;7534;50.762;7.000;2023-12-28T09:21:05;3.10;;;2.00;;
14883;SDS011;7534;50.762;7.000;2023-12-28T09:23:32;3.88;;;2.15;;
14883;SDS011;7534;50.762;7.000;2023-12-28T09:25:59;2.88;;;1.83;;
14883;SDS011;7534;50.762;7.000;2023-12-28T09:28:26;2.55;;;1.70;;
14883;SDS011;7534;50.762;7.000;2023-12-28T09:30:52;3.35;;;2.00;;
14883;SDS011;7534;50.762;7.000;2023-12-28T09:33:17;3.45;;;1.95;;
14883;SDS011;7534;50.762;7.000;2023-12-28T09:35:43;3.90;;;2.13;;
14883;SDS011;7534;50.762;7.000;2023-12-28T09:38:09;4.57;;;1.83;;
14883;SDS011;7534;50.762;7.000;2023-12-28T09:40:38;4.43;;;2.00;;
14883;SDS011;7534;50.762;7.000;2023-12-28T09:46:05;4.50;;;2.17;;
14883;SDS011;7534;50.762;7.000;2023-12-28T09:48:32;3.93;;;1.93;;
14883;SDS011;7534;50.762;7.000;2023-12-28T09:50:59;3.97;;;2.03;;
14883;SDS011;7534;50.762;7.000;2023-12-28T09:53:25;3.13;;;1.90;;
14883;SDS011;7534;50.762;7.000;2023-12-28T09:55:51;3.83;;;2.10;;
14883;SDS011;7534;50.762;7.000;2023-12-28T09:58:18;2.80;;;1.57;;
14883;SDS011;7534;50.762;7.000;2023-12-28T10:00:47;3.57;;;1.80;;
14883;SDS011;7534;50.762;7.000;2023-12-28T10:03:15;5.63;;;1.90;;
14883;SDS011;7534;50.762;7.000;2023-12-28T10:05:42;3.63;;;1.83;;
14883;SDS011;7534;50.762;7.000;2023-12-28T10:08:16;5.67;;;2.07;;
14883;SDS011;7534;50.762;7.000;2023-12-28T10:10:42;3.90;;;1.90;;
14883;SDS011;7534;50.762;7.000;2023-12-28T10:13:15;5.07;;;2.23;;
14883;SDS011;7534;50.762;7.000;2023-12-28T10:15:42;3.00;;;2.20;;
14883;SDS011;7534;50.762;7.000;2023-12-28T10:18:08;5.67;;;2.20;;
14883;SDS011;7534;50.762;7.000;2023-12-28T10:20:34;4.57;;;1.90;;
14883;SDS011;7534;50.762;7.000;2023-12-28T10:23:00;3.13;;;1.90;;
14883;SDS011;7534;50.762;7.000;2023-12-28T10:25:30;4.70;;;2.07;;
14883;SDS011;7534;50.762;7.000;2023-12-28T10:27:57;3.13;;;1.90;;
14883;SDS011;7534;50.762;7.000;2023-12-28T10:30:24;3.70;;;1.80;;
14883;SDS011;7534;50.762;7.000;2023-12-28T10:32:49;3.23;;;2.07;;
14883;SDS011;7534;50.762;7.000;2023-12-28T10:35:15;6.23;;;2.07;;
14883;SDS011;7534;50.762;7.000;2023-12-28T10:37:43;4.20;;;1.90;;
14883;SDS011;7534;50.762;7.000;2023-12-28T10:40:18;4.27;;;1.90;;
14883;SDS011;7534;50.762;7.000;2023-12-28T10:45:31;5.57;;;2.13;;
14883;SDS011;7534;50.762;7.000;2023-12-28T10:48:09;4.22;;;2.00;;
14883;SDS011;7534;50.762;7.000;2023-12-28T10:50:41;4.43;;;1.93;;
14883;SDS011;7534;50.762;7.000;2023-12-28T10:56:25;5.80;;;2.43;;
14883;SDS011;7534;50.762;7.000;2023-12-28T11:01:42;18.13;;;2.80;;
14883;SDS011;7534;50.762;7.000;2023-12-28T11:06:57;3.23;;;1.97;;
14883;SDS011;7534;50.762;7.000;2023-12-28T11:09:25;5.83;;;1.80;;
14883;SDS011;7534;50.762;7.000;2023-12-28T11:11:55;6.73;;;1.97;;
14883;SDS011;7534;50.762;7.000;2023-12-28T11:14:26;4.60;;;2.03;;
14883;SDS011;7534;50.762;7.000;2023-12-28T11:16:52;5.33;;;1.97;;
14883;SDS011;7534;50.762;7.000;2023-12-28T11:19:19;4.93;;;1.87;;
14883;SDS011;7534;50.762;7.000;2023-12-28T11:21:47;3.07;;;1.83;;
14883;SDS011;7534;50.762;7.000;2023-12-28T11:24:15;4.77;;;2.00;;
14883;SDS011;7534;50.762;7.000;2023-12-28T11:26:43;5.83;;;2.20;;
14883;SDS011;7534;50.762;7.000;2023-12-28T11:29:08;3.67;;;1.73;;
14883;SDS011;7534;50.762;7.000;2023-12-28T11:31:35;4.20;;;1.80;;
14883;SDS011;7534;50.762;7.000;2023-12-28T11:34:01;3.87;;;2.63;;
14883;SDS011;7534;50.762;7.000;2023-12-28T11:39:01;3.87;;;2.10;;
14883;SDS011;7534;50.762;7.000;2023-12-28T11:41:32;3.70;;;1.90;;
14883;SDS011;7534;50.762;7.000;2023-12-28T11:44:05;3.43;;;1.70;;
14883;SDS011;7534;50.762;7.000;2023-12-28T11:46:31;3.57;;;1.70;;
14883;SDS011;7534;50.762;7.000;2023-12-28T11:49:07;5.53;;;2.00;;
14883;SDS011;7534;50.762;7.000;2023-12-28T11:51:35;4.03;;;1.83;;
14883;SDS011;7534;50.762;7.000;2023-12-28T11:54:03;3.40;;;1.63;;
14883;SDS011;7534;50.762;7.000;2023-12-28T11:56:30;5.43;;;1.73;;
14883;SDS011;7534;50.762;7.000;2023-12-28T11:58:57;4.13;;;1.90;;
14883;SDS011;7534;50.762;7.000;2023-12-28T12:01:26;3.03;;;1.63;;
14883;SDS011;7534;50.762;7.000;2023-12-28T12:03:54;3.20;;;1.70;;
14883;SDS011;7534;50.762;7.000;2023-12-28T12:06:20;3.13;;;1.93;;
14883;SDS011;7534;50.762;7.000;2023-12-28T12:08:46;4.23;;;2.13;;
14883;SDS011;7534;50.762;7.000;2023-12-28T12:11:12;3.77;;;1.80;;
14883;SDS011;7534;50.762;7.000;2023-12-28T12:13:37;4.43;;;1.70;;
14883;SDS011;7534;50.762;7.000;2023-12-28T12:16:09;3.73;;;1.73;;
14883;SDS011;7534;50.762;7.000;2023-12-28T12:18:35;4.77;;;1.90;;
14883;SDS011;7534;50.762;7.000;2023-12-28T12:21:02;5.20;;;2.03;;
14883;SDS011;7534;50.762;7.000;2023-12-28T12:23:29;5.43;;;2.00;;
14883;SDS011;7534;50.762;7.000;2023-12-28T12:25:55;4.50;;;1.90;;
14883;SDS011;7534;50.762;7.000;2023-12-28T12:28:21;4.20;;;1.83;;
14883;SDS011;7534;50.762;7.000;2023-12-28T12:30:54;5.13;;;1.95;;
14883;SDS011;7534;50.762;7.000;2023-12-28T12:33:23;5.38;;;1.70;;
14883;SDS011;7534;50.762;7.000;2023-12-28T12:35:52;6.00;;;2.08;;
14883;SDS011;7534;50.762;7.000;2023-12-28T12:38:17;4.53;;;1.77;;
14883;SDS011;7534;50.762;7.000;2023-12-28T12:40:43;3.73;;;1.90;;
14883;SDS011;7534;50.762;7.000;2023-12-28T12:43:09;5.13;;;1.70;;
14883;SDS011;7534;50.762;7.000;2023-12-28T12:45:35;2.53;;;1.80;;
14883;SDS011;7534;50.762;7.000;2023-12-28T12:48:04;4.43;;;1.80;;
14883;SDS011;7534;50.762;7.000;2023-12-28T12:50:35;4.17;;;1.73;;
14883;SDS011;7534;50.762;7.000;2023-12-28T12:53:05;5.47;;;1.80;;
14883;SDS011;7534;50.762;7.000;2023-12-28T12:55:31;3.73;;;1.80;;
14883;SDS011;7534;50.762;7.000;2023-12-28T12:57:57;2.73;;;1.90;;
14883;SDS011;7534;50.762;7.000;2023-12-28T13:00:23;3.00;;;1.70;;
14883;SDS011;7534;50.762;7.000;2023-12-28T13:02:52;2.70;;;1.60;;
14883;SDS011;7534;50.762;7.000;2023-12-28T13:05:19;4.60;;;1.90;;
14883;SDS011;7534;50.762;7.000;2023-12-28T13:07:45;5.07;;;2.00;;
14883;SDS011;7534;50.762;7.000;2023-12-28T13:10:10;4.03;;;1.60;;
14883;SDS011;7534;50.762;7.000;2023-12-28T13:12:36;5.90;;;2.10;;
14883;SDS011;7534;50.762;7.000;2023-12-28T13:15:02;5.93;;;1.90;;
14883;SDS011;7534;50.762;7.000;2023-12-28T13:17:29;2.73;;;1.63;;
14883;SDS011;7534;50.762;7.000;2023-12-28T13:19:54;4.73;;;1.90;;
14883;SDS011;7534;50.762;7.000;2023-12-28T13:22:20;5.80;;;2.00;;
14883;SDS011;7534;50.762;7.000;2023-12-28T13:24:46;5.00;;;1.70;;
14883;SDS011;7534;50.762;7.000;2023-12-28T13:27:12;4.57;;;1.60;;
14883;SDS011;7534;50.762;7.000;2023-12-28T13:29:39;4.20;;;1.97;;
14883;SDS011;7534;50.762;7.000;2023-12-28T13:32:05;4.53;;;1.90;;
14883;SDS011;7534;50.762;7.000;2023-12-28T13:34:31;4.20;;;1.73;;
14883;SDS011;7534;50.762;7.000;2023-12-28T13:36:57;3.10;;;1.60;;
14883;SDS011;7534;50.762;7.000;2023-12-28T13:39:24;2.83;;;1.60;;
14883;SDS011;7534;50.762;7.000;2023-12-28T13:41:53;4.23;;;1.53;;
14883;SDS011;7534;50.762;7.000;2023-12-28T13:44:19;3.70;;;1.60;;
14883;SDS011;7534;50.762;7.000;2023-12-28T13:46:45;6.73;;;1.93;;
14883;SDS011;7534;50.762;7.000;2023-12-28T13:49:11;4.57;;;1.60;;
14883;SDS011;7534;50.762;7.000;2023-12-28T13:51:36;2.20;;;1.50;;
14883;SDS011;7534;50.762;7.000;2023-12-28T13:54:03;7.03;;;1.90;;
14883;SDS011;7534;50.762;7.000;2023-12-28T13:56:29;3.13;;;1.50;;
14883;SDS011;7534;50.762;7.000;2023-12-28T13:58:55;4.20;;;2.00;;
14883;SDS011;7534;50.762;7.000;2023-12-28T14:01:21;5.43;;;1.73;;
14883;SDS011;7534;50.762;7.000;2023-12-28T14:03:46;4.77;;;1.87;;
14883;SDS011;7534;50.762;7.000;2023-12-28T14:06:16;5.20;;;1.80;;
14883;SDS011;7534;50.762;7.000;2023-12-28T14:08:42;5.23;;;1.80;;
14883;SDS011;7534;50.762;7.000;2023-12-28T14:11:08;4.27;;;1.90;;
14883;SDS011;7534;50.762;7.000;2023-12-28T14:13:34;3.77;;;1.90;;
14883;SDS011;7534;50.762;7.000;2023-12-28T14:16:02;4.93;;;1.70;;
14883;SDS011;7534;50.762;7.000;2023-12-28T14:18:29;6.23;;;1.93;;
14883;SDS011;7534;50.762;7.000;2023-12-28T14:20:54;3.83;;;1.87;;
14883;SDS011;7534;50.762;7.000;2023-12-28T14:23:20;4.17;;;1.70;;
14883;SDS011;7534;50.762;7.000;2023-12-28T14:25:47;5.33;;;2.07;;
14883;SDS011;7534;50.762;7.000;2023-12-28T14:28:18;5.43;;;1.83;;
14883;SDS011;7534;50.762;7.000;2023-12-28T14:30:46;3.90;;;1.77;;
14883;SDS011;7534;50.762;7.000;2023-12-28T14:33:12;5.63;;;1.90;;
14883;SDS011;7534;50.762;7.000;2023-12-28T14:35:38;5.80;;;1.90;;
14883;SDS011;7534;50.762;7.000;2023-12-28T14:38:04;4.00;;;1.80;;
14883;SDS011;7534;50.762;7.000;2023-12-28T14:40:33;2.93;;;1.83;;
14883;SDS011;7534;50.762;7.000;2023-12-28T14:42:59;3.33;;;1.47;;
14883;SDS011;7534;50.762;7.000;2023-12-28T14:45:25;2.93;;;1.60;;
14883;SDS011;7534;50.762;7.000;2023-12-28T14:47:51;5.13;;;1.80;;
14883;SDS011;7534;50.762;7.000;2023-12-28T14:50:16;4.30;;;1.90;;
14883;SDS011;7534;50.762;7.000;2023-12-28T14:52:43;3.88;;;2.00;;
14883;SDS011;7534;50.762;7.000;2023-12-28T14:55:10;2.90;;;1.57;;
14883;SDS011;7534;50.762;7.000;2023-12-28T14:57:36;4.23;;;1.80;;
14883;SDS011;7534;50.762;7.000;2023-12-28T15:00:02;4.13;;;1.90;;
14883;SDS011;7534;50.762;7.000;2023-12-28T15:02:31;5.73;;;1.90;;
14883;SDS011;7534;50.762;7.000;2023-12-28T15:04:58;3.43;;;1.60;;
14883;SDS011;7534;50.762;7.000;2023-12-28T15:07:24;4.63;;;1.93;;
14883;SDS011;7534;50.762;7.000;2023-12-28T15:09:50;2.00;;;1.57;;
14883;SDS011;7534;50.762;7.000;2023-12-28T15:12:21;7.33;;;2.00;;
14883;SDS011;7534;50.762;7.000;2023-12-28T15:14:47;6.27;;;1.80;;
14883;SDS011;7534;50.762;7.000;2023-12-28T15:17:14;3.97;;;2.20;;